Francisco Dias

Olheiro-Chefe - Moreirense
23 Abr 2028
Domingo
Processo

Personalidade

Adaptabilidade (6) Ambição (11) Controvérsia (20) Lealdade (13) Pressão (14) Profissionalismo (19) Espírito Esportivo (9) Temperamento (8)

Perfil

Estilo de Treinamento Democrático
Licença Continental C
Determinação 10
Gestão de Pessoas 8
Motivação 12
Disciplina 8
Satisfação no Trabalho
100%
Fadiga
0%
Função Olheiro-Chefe
Salário 28.1K p/s
Contrato 14.03.2029

Desempenho

Comportamento Bom
Eficácia do Treinamento
39%
Desenvolvimento do Jogador
55%
Prevenção de Lesões
40%
Implementação Tática
50%

Eventos Recentes

Participou de uma reunião de recrutamento agora
Participou de uma reunião de recrutamento agora
Participou de uma reunião de recrutamento agora
Recomendou um alvo de transferência agora
Participou de uma reunião de recrutamento agora
Recomendou um alvo de transferência agora
Recomendou um alvo de transferência agora
Avaliou um jogador agora

Monitorando agora

187
Jogador Clube Status Habilidade Confiança Observado Última observação Último voto
Lamine Bèye Portimonense Ativo 115 / 105 40% 2 22.04.2028 -
Itumeleng Jali Spezia Ativo 119 / 118 40% 1 22.04.2028 -
Mattia Puzone Siracusa Ativo 99 / 101 40% 1 22.04.2028 -
Josh Nichols Oldham Athletic Ativo 119 / 123 40% 4 20.04.2028 -
Ayden Heaven Portsmouth Ativo 144 / 159 40% 2 20.04.2028 -
Jan Bürger Northampton Town Ativo 118 / 128 40% 4 18.04.2028 -
Chris Rigg Sunderland Ativo 139 / 137 40% 3 18.04.2028 -
Bernardo Lima Porto Ativo 112 / 106 40% 3 18.04.2028 -
Kamaldeen Atiemo Wa All Stars Ativo 111 / 130 40% 2 17.04.2028 -
Andrija Bulatović Chamois Niortais Ativo 124 / 125 40% 7 17.04.2028 -
Kiani Inge Groningen Ativo 110 / 114 40% 2 17.04.2028 -
Bongani Jali Free State Stars Ativo 97 / 122 40% 3 16.04.2028 -
Alani Maritimo Ativo 116 / 103 40% 2 14.04.2028 -
Jorthy Mokio ADO Den Haag Ativo 130 / 129 40% 3 14.04.2028 -
Martim Cunha Porto Ativo 109 / 101 40% 2 12.04.2028 -
Adnan Nainggolan KV Oostende Ativo 100 / 123 40% 4 12.04.2028 -
Daniel Banjaqui Benfica Ativo 128 / 115 40% 2 11.04.2028 -
Nicolas Sport Recife Ativo 110 / 103 40% 3 10.04.2028 -
Nathan De Cat SC Freiburg Ativo 134 / 138 40% 1 10.04.2028 -
Josh Acheampong Everton Ativo 139 / 144 40% 3 08.04.2028 -
Abubakar Adams Aduana Stars Ativo 79 / 94 40% 1 08.04.2028 -
Jorge Moreno Athletic Bilbao Ativo 130 / 124 40% 3 05.04.2028 -
Trey Nyoni Rotherham United Ativo 134 / 136 40% 4 05.04.2028 -
Christos Mouzakitis Hull City Ativo 141 / 140 40% 2 05.04.2028 -
Konta Ismaily Ativo 92 / 116 40% 3 04.04.2028 -
Dmytro Strilchuk Podillia Ativo 80 / 104 40% 2 03.04.2028 -
Giovanni Leoni Lincoln City Ativo 140 / 139 40% 1 03.04.2028 -
Josh King Newcastle United Ativo 147 / 137 40% 4 02.04.2028 -
Lucas Høgsberg RC Strasbourg Ativo 138 / 151 40% 2 01.04.2028 -
Germán Barbas Burgos Ativo 114 / 119 40% 5 30.03.2028 -
Finn Jeltsch VfB Stuttgart Ativo 137 / 150 40% 2 30.03.2028 -
Honest Ahanor Atalanta Ativo 140 / 145 40% 4 28.03.2028 -
Tylel Tati Chamois Niortais Ativo 130 / 133 40% 1 28.03.2028 -
Olivier Leroux Mouscron Ativo 100 / 118 40% 1 24.03.2028 -
Matias Siltanen Malmo FF Ativo 123 / 151 40% 2 23.03.2028 -
Thijs Kraaijeveld USM Alger Ativo 121 / 136 40% 1 22.03.2028 -
Andrey Ivlev Nizhniy Novgorod Ativo 111 / 121 40% 2 20.03.2028 -
Matvey Bardachev Zenit Ativo 107 / 124 40% 1 19.03.2028 -
Thulani Manyama SuperSport United Ativo 110 / 136 40% 2 15.03.2028 -
Melvin Vučenović Persson Atvidaberg Ativo 78 / 74 40% 1 14.03.2028 -
Miguel Figueiredo Benfica Ativo 115 / 132 40% 2 13.03.2028 -
Riquelme Thompson-Jones Accrington Stanley Ativo 110 / 110 40% 1 11.03.2028 -
Yann Kitala Vizela Ativo 113 / 113 42% 1 / 1m 09.02.2028 -
Mateo Flores Arouca Relatório pronto 117 / 115 79% 1 24.01.2028 -
Francisco Machis Llaneros Ativo 81 / 86 40% 1 17.01.2028 -
Dion Beljo AJ Auxerre Negociando 131 / 132 66% 1 01.01.2028 -
Mao Hosoya Santos Negociando 134 / 135 67% 1 01.01.2028 -
Patrik Wålemark Gaziantep Ativo 124 / 125 67% 1 01.01.2028 Aprovar
Oscar Schwartau Norwich City Ativo 129 / 128 40% 8 26.07.2027 -
Leandro Martins Benfica Ativo 92 / 99 40% 1 26.07.2027 -
Ryan Oné Sheffield United Ativo 120 / 124 40% 1 26.07.2027 -
Bernardes Benfica Ativo 102 / 115 40% 3 19.07.2027 -
Maren Kefas Plateau United Ativo 96 / 97 40% 1 19.07.2027 -
Gonzalo Fulham Ativo 149 / 146 40% 2 05.07.2027 -
Marezi Portsmouth Ativo 122 / 114 40% 2 05.07.2027 -
Elijah Adebayo Luton Town Ativo 123 / 116 40% 1 05.07.2027 -
Gabriele Bertolini Vicenza Ativo 100 / 99 40% 1 23.06.2027 -
Nana Nuhu WAFA Ativo 89 / 98 40% 2 14.06.2027 -
João Queirós Oliveirense Ativo 110 / 97 79% 1 14.06.2027 Aprovar
Rafael Camacho Sporting CP Ativo 91 / 95 40% 1 31.05.2027 -
Ethan Williams Peterborough United Ativo 113 / 115 40% 3 30.05.2027 -
Iseppe Nacional Ativo 106 / 111 40% 1 30.05.2027 -
Assane Diao Como Ativo 146 / 158 40% 9 28.05.2027 -
Olívio Tomé Benfica Ativo 106 / 130 40% 2 28.05.2027 -
Salvador Blopá Sporting CP Ativo 116 / 122 40% 2 27.05.2027 Mais informações
Bazoumana Touré Newcastle United Ativo 134 / 144 40% 2 27.05.2027 -
Kirill Glebov CSKA Moscow Ativo 125 / 135 40% 4 26.05.2027 -
Jesús Rodríguez Como Ativo 142 / 145 40% 4 25.05.2027 -
Leo Castledine Middlesbrough Ativo 132 / 129 40% 3 25.05.2027 -
Gonçalo Moreira Benfica Ativo 116 / 114 40% 2 22.05.2027 -
Othmane Maamma Watford Ativo 125 / 122 40% 1 22.05.2027 -
André Miranda Porto Ativo 105 / 97 40% 1 20.05.2027 -
Lander Astiazarán Real Sociedad Ativo 107 / 108 40% 2 19.05.2027 -
Sindre Walle Egeli Udinese Ativo 130 / 132 40% 1 19.05.2027 -
Nestory Irankunda Watford Ativo 125 / 136 40% 1 19.05.2027 -
Víctor Guzmán Sporting CP Ativo 95 / 94 40% 3 18.05.2027 -
Romelle Donovan Brentford Ativo 124 / 138 40% 1 16.05.2027 -
Eduardo Fernandes Benfica Ativo 109 / 116 40% 1 11.05.2027 -
Mohamadou Kanté Crawley Town Ativo 120 / 110 40% 3 10.05.2027 -
Gomolemo Kekana Maritzburg United Ativo 100 / 105 40% 1 10.05.2027 -
Mateus Mané Burnley Ativo 130 / 138 40% 2 09.05.2027 -
Tiago Freitas Benfica Ativo 108 / 111 40% 2 08.05.2027 -
Toni Tamarit Alverca Ativo 110 / 117 40% 1 08.05.2027 -
Sorriso Famalicao Ativo 132 / 120 40% 4 07.05.2027 -
Fábio Carvalho Brentford Ativo 140 / 135 40% 2 07.05.2027 -
Giacomo Raspadori Atalanta Ativo 144 / 150 40% 4 06.05.2027 -
Nicolò Zaniolo Udinese Ativo 141 / 154 40% 4 06.05.2027 -
Dale Taylor Blackpool Ativo 110 / 111 40% 1 06.05.2027 -
Joe Gelhardt Hull City Ativo 130 / 142 40% 6 05.05.2027 -
Ilyas Ansah Hull City Ativo 132 / 130 40% 3 05.05.2027 -
Rodrigo Muniz Fulham Ativo 135 / 132 40% 3 04.05.2027 -
Gustavo Silva Vitoria Guimaraes Ativo 121 / 133 40% 3 03.05.2027 -
Henrique Araújo Casa Pia Ativo 123 / 122 40% 4 03.05.2027 -
Thiago Brentford Ativo 142 / 147 40% 3 28.04.2027 -
Jackson Muleka Konyaspor Ativo 128 / 118 40% 4 26.04.2027 -
Vinícius Lopes Santa Clara Ativo 127 / 123 40% 6 25.04.2027 -
Lorenzo Colombo Genoa Ativo 139 / 140 40% 4 24.04.2027 -
Aune Heggebø West Bromwich Albion Ativo 128 / 127 40% 2 22.04.2027 -
Lovro Zvonarek Estrela da Amadora Ativo 121 / 134 40% 1 18.04.2027 -
Wandile Duba ASO Chlef Ativo 114 / 87 40% 1 17.04.2027 -
Tyrese Campbell Sheffield United Ativo 131 / 120 40% 5 15.04.2027 -
Sam Greenwood Bristol City Ativo 120 / 113 40% 3 15.04.2027 -
Monty Batlhabane Polokwane City Ativo 100 / 92 40% 1 15.04.2027 -
Daniel Awuni Aduana Stars Ativo 87 / 110 40% 2 13.04.2027 -
Yanis Begraoui Estoril Praia Ativo 140 / 140 40% 9 03.04.2027 -
Yousef Salech Cardiff City Ativo 127 / 112 40% 3 31.03.2027 -
Tyreece Campbell Charlton Athletic Ativo 118 / 108 40% 1 29.03.2027 -
Rafael Navarro Famalicao Ativo 125 / 126 40% 1 26.03.2027 -
Kevin Fulham Ativo 144 / 152 40% 5 22.03.2027 -
Mohamed-Ali Cho Hull City Ativo 139 / 141 40% 2 22.03.2027 -
Lorougnon Gohi Académico de Viseu Ativo 112 / 130 40% 1 22.03.2027 -
Jack Rudoni Coventry City Ativo 131 / 137 40% 1 22.03.2027 -
Cian Ashford Cardiff City Ativo 112 / 119 40% 3 20.03.2027 -
Andre Brooks Sheffield United Ativo 129 / 133 40% 1 17.03.2027 -
Savinho Tottenham Ativo 151 / 167 40% 6 16.03.2027 -
Sam Bell Bristol City Ativo 124 / 124 40% 3 16.03.2027 -
Yeremy Pino Crystal Palace Ativo 149 / 161 40% 2 16.03.2027 -
Tamble Monteiro Rio Ave Ativo 120 / 116 40% 1 16.03.2027 -
Óscar Mingueza Crystal Palace Ativo 149 / 158 40% 4 14.03.2027 -
Chemsdine Talbi Sunderland Ativo 138 / 139 40% 5 14.03.2027 -
Derensili Sanches Fernandes Huddersfield Town Ativo 129 / 114 40% 1 14.03.2027 -
Víctor Gómez Braga Ativo 145 / 140 40% 5 12.03.2027 Observar
Marcelo Allende Mamelodi Sundowns Ativo 141 / 135 40% 2 12.03.2027 -
Igor Jesus Nottingham Forest Ativo 144 / 152 40% 1 12.03.2027 -
Rafik Guitane Estoril Praia Ativo 128 / 129 40% 3 26.02.2027 -
Juan Bezerra Zamalek Ativo 111 / 111 40% 1 26.02.2027 -
Simo Maritimo Ativo 125 / 121 40% 1 26.02.2027 -
Finn Azaz Southampton Ativo 124 / 136 40% 6 24.02.2027 -
Carlos Vicente Birmingham Ativo 141 / 145 40% 8 22.02.2027 -
Matt O'Riley Brighton Ativo 148 / 158 40% 2 22.02.2027 -
Mario Dorgeles Braga Ativo 128 / 150 40% 3 21.02.2027 -
Amine Adli Bournemouth Ativo 147 / 148 40% 1 19.02.2027 -
Themba Williams Ajax Cape Town Ativo 129 / 109 40% 2 16.02.2027 -
Bongani Zungu Ajax Cape Town Ativo 128 / 119 40% 3 14.02.2027 -
Justo Giani Umraniyespor Ativo 120 / 111 40% 2 11.02.2027 -
Oswin Appollis Orlando Pirates Ativo 124 / 109 40% 3 07.02.2027 -
Ole Pohlmann Rio Ave Ativo 118 / 135 40% 2 07.02.2027 -
Amar Memić Viktoria Plzen Ativo 134 / 120 40% 1 07.02.2027 -
Lorent Tolaj Plymouth Argyle Ativo 122 / 120 40% 1 25.01.2027 -
Bradley Zwane SuperSport United Ativo 123 / 119 40% 4 21.01.2027 -
Manu Pozo Torreense Ativo 120 / 135 40% 2 21.01.2027 -
Sampson Dweh Mallorca Ativo 133 / 134 66% 1 01.01.2027 Aprovar
Yehor Yarmoliuk Brentford Ativo 146 / 154 40% 1 29.12.2026 -
Roberto Fernández Braga Ativo 140 / 142 40% 2 23.12.2026 Mais informações
Welington Southampton Ativo 135 / 117 40% 1 23.12.2026 -
Adu Ares Eibar Ativo 125 / 128 40% 1 22.12.2026 -
Morgan Gibbs-White Nottingham Forest Ativo 153 / 159 40% 4 21.12.2026 -
Igor Formiga Mirassol Ativo 128 / 113 40% 1 19.12.2026 -
Lee Hyun-Ju Arouca Ativo 129 / 114 40% 1 18.12.2026 -
Jordan van der Gaag Leiria Ativo 121 / 124 40% 2 17.12.2026 -
Pau Víctor Braga Ativo 136 / 125 40% 1 12.12.2026 -
Milan van Ewijk Coventry City Ativo 138 / 143 40% 1 09.12.2026 -
Jason Knight Bristol City Ativo 122 / 118 40% 2 04.12.2026 -
Diego Lainez Tigres Ativo 125 / 128 40% 3 29.11.2026 -
John Mercado Sparta Prague Ativo 125 / 108 40% 1 27.11.2026 -
Wilson Isidor Sunderland Ativo 138 / 149 40% 1 26.11.2026 -
Santi García Gil Vicente Ativo 129 / 131 40% 1 22.11.2026 -
Noah Sadiki Sunderland Ativo 143 / 138 40% 1 21.11.2026 -
Ryan Sessegnon Fulham Ativo 141 / 159 40% 1 18.11.2026 -
Brandon Aguilera Rio Ave Ativo 111 / 127 40% 1 17.11.2026 -
Teboho Mokoena Mamelodi Sundowns Ativo 123 / 116 40% 1 17.11.2026 -
Alan Lescano Argentinos Juniors Ativo 120 / 142 40% 1 14.11.2026 -
Carlos Álvarez Club America Ativo 134 / 153 40% 2 12.11.2026 -
Sorba Thomas Stoke City Ativo 136 / 121 40% 1 12.11.2026 -
Juan Bisanz Huracán Ativo 131 / 106 40% 3 09.11.2026 -
Kwadwo Baah Watford Ativo 123 / 124 40% 1 08.11.2026 -
Adam Wharton Crystal Palace Ativo 147 / 158 40% 1 08.11.2026 -
Alejandro Piedrahita Deportivo Pereira Ativo 128 / 112 40% 1 06.11.2026 -
Pablo Rosario Porto Ativo 138 / 137 40% 1 02.11.2026 -
Keane Lewis-Potter Brentford Ativo 144 / 140 40% 1 02.11.2026 -
Richard Ledezma Guadalajara Ativo 136 / 125 40% 1 02.11.2026 -
Tyler Adams Bournemouth Ativo 159 / 164 40% 3 01.11.2026 -
Marcel Ruiz Crystal Palace Ativo 137 / 147 40% 1 27.10.2026 -
Alexsander Atlético Mineiro Ativo 130 / 143 40% 3 25.10.2026 -
Omar Campos Cruz Azul Ativo 131 / 117 40% 1 22.10.2026 -
Ezequiel Bullaude Santos Laguna Ativo 127 / 128 40% 1 20.10.2026 -
Adrien Truffert Bournemouth Ativo 145 / 164 40% 1 20.10.2026 -
Carlos Forbs Club Brugge Ativo 137 / 125 40% 2 17.10.2026 Mais informações
Iván Angulo Orlando City Ativo 122 / 120 40% 1 16.10.2026 -
Jaminton Campaz Rosario Central Ativo 123 / 131 40% 2 12.10.2026 -
Aarón Molinas Defensa y Justicia Ativo 132 / 115 40% 2 10.10.2026 -
Alex Luna Instituto Ativo 136 / 114 40% 1 08.10.2026 -
Santiago Simón Toluca Ativo 116 / 110 40% 1 07.10.2026 -
Camilo Martinez Cortulua Ativo 128 / 107 40% 1 06.10.2026 -
Bosun Lawal Stoke City Ativo 131 / 140 40% 1 06.10.2026 -
Alejo Cruz Juventud Ativo 130 / 98 40% 1 08.09.2026 -
Juan Dinenno Pumas UNAM Ativo 120 / 124 40% 1 17.08.2026 -